createdAt,value
2019-02-28T00:02:23.096Z,6.22
2019-02-28T00:04:49.191Z,6.33
2019-02-28T00:07:17.819Z,6.47
2019-02-28T00:09:44.397Z,6.58
2019-02-28T00:12:13.701Z,6.66
2019-02-28T00:14:39.718Z,6.75
2019-02-28T00:17:06.231Z,6.79
2019-02-28T00:19:33.924Z,6.88
2019-02-28T00:22:00.067Z,6.96
2019-02-28T00:24:27.170Z,7.08
2019-02-28T00:26:54.582Z,7.07
2019-02-28T00:29:20.884Z,7.23
2019-02-28T00:31:49.918Z,7.27
2019-02-28T00:34:15.096Z,7.30
2019-02-28T00:36:41.172Z,7.33
2019-02-28T00:39:07.392Z,7.41
2019-02-28T00:41:33.814Z,7.35
2019-02-28T00:43:59.904Z,7.39
2019-02-28T00:46:26.075Z,7.44
2019-02-28T00:48:53.011Z,7.48
2019-02-28T00:51:20.169Z,7.50
2019-02-28T00:53:46.262Z,7.59
2019-02-28T00:56:12.443Z,7.56
2019-02-28T00:58:38.697Z,7.42
2019-02-28T01:01:04.960Z,7.29
2019-02-28T01:03:31.191Z,7.35
2019-02-28T01:05:57.492Z,7.33
2019-02-28T01:08:23.843Z,7.48
2019-02-28T01:10:49.948Z,7.52
2019-02-28T01:13:17.161Z,7.39
2019-02-28T01:15:44.878Z,7.35
2019-02-28T01:18:11.405Z,7.32
2019-02-28T01:20:37.661Z,7.32
2019-02-28T01:23:03.996Z,7.24
2019-02-28T01:25:30.101Z,7.19
2019-02-28T01:27:56.419Z,7.19
2019-02-28T01:30:22.685Z,7.12
2019-02-28T01:32:50.895Z,7.06
2019-02-28T01:35:17.008Z,6.99
2019-02-28T01:37:43.313Z,6.93
2019-02-28T01:40:11.319Z,7.05
2019-02-28T01:42:37.465Z,7.07
2019-02-28T01:45:07.037Z,7.23
2019-02-28T01:47:34.392Z,7.21
2019-02-28T01:50:00.494Z,7.23
2019-02-28T01:52:26.708Z,7.15
2019-02-28T01:54:52.933Z,7.07
2019-02-28T01:57:19.237Z,7.13
2019-02-28T01:59:45.364Z,7.15
2019-02-28T02:02:11.672Z,7.08
2019-02-28T02:04:37.988Z,7.03
2019-02-28T02:07:04.277Z,6.96
2019-02-28T02:09:30.466Z,6.98
2019-02-28T02:11:59.128Z,6.86
2019-02-28T02:14:25.371Z,6.76
2019-02-28T02:16:51.407Z,6.71
2019-02-28T02:19:18.531Z,6.73
2019-02-28T02:21:45.005Z,6.74
2019-02-28T02:24:11.300Z,6.57
2019-02-28T02:26:37.409Z,6.60
2019-02-28T02:29:09.008Z,6.59
2019-02-28T02:31:35.309Z,6.55
2019-02-28T02:34:05.287Z,6.63
2019-02-28T02:36:31.491Z,6.50
2019-02-28T02:38:57.683Z,6.18
2019-02-28T02:41:23.736Z,6.13
2019-02-28T02:43:49.834Z,6.00
2019-02-28T02:46:20.164Z,5.88
2019-02-28T02:48:43.932Z,5.84
2019-02-28T02:51:11.339Z,5.48
2019-02-28T02:53:42.157Z,5.48
2019-02-28T02:56:06.147Z,5.14
2019-02-28T02:58:33.413Z,5.23
2019-02-28T03:00:59.607Z,5.17
2019-02-28T03:03:25.796Z,4.90
2019-02-28T03:05:51.887Z,4.91
2019-02-28T03:08:17.976Z,4.87
2019-02-28T03:10:44.242Z,4.98
2019-02-28T03:13:10.326Z,4.93
2019-02-28T03:15:36.437Z,4.43
2019-02-28T03:18:06.448Z,4.46
2019-02-28T03:20:32.641Z,4.43
2019-02-28T03:23:02.232Z,4.55
2019-02-28T03:25:28.271Z,4.48
2019-02-28T03:27:56.431Z,4.33
2019-02-28T03:30:31.119Z,4.20
2019-02-28T03:32:51.051Z,4.29
2019-02-28T03:35:17.177Z,4.26
2019-02-28T03:37:43.529Z,4.21
2019-02-28T03:40:13.060Z,4.13
2019-02-28T03:42:39.361Z,3.61
2019-02-28T03:45:10.650Z,3.62
2019-02-28T03:47:36.828Z,3.66
2019-02-28T03:50:08.519Z,3.68
2019-02-28T03:52:41.794Z,3.71
2019-02-28T03:55:05.494Z,3.64
2019-02-28T03:57:31.911Z,3.71
2019-02-28T03:59:58.077Z,3.62
2019-02-28T04:02:24.385Z,3.37
2019-02-28T04:04:50.953Z,3.26
2019-02-28T04:07:17.221Z,3.31
2019-02-28T04:09:44.311Z,3.23
2019-02-28T04:12:11.522Z,3.24
2019-02-28T04:14:37.636Z,3.33
2019-02-28T04:17:06.623Z,3.49
2019-02-28T04:19:32.937Z,3.31
2019-02-28T04:21:59.146Z,3.36
2019-02-28T04:24:25.251Z,3.32
2019-02-28T04:26:51.586Z,3.21
2019-02-28T04:29:17.668Z,3.22
2019-02-28T04:31:43.746Z,3.26
2019-02-28T04:34:13.058Z,3.03
2019-02-28T04:36:37.927Z,2.82
2019-02-28T04:39:08.514Z,2.98
2019-02-28T04:41:36.663Z,2.90
2019-02-28T04:44:04.972Z,2.89
2019-02-28T04:46:33.873Z,2.90
2019-02-28T04:48:59.972Z,2.80
2019-02-28T04:51:26.069Z,2.65
2019-02-28T04:53:54.100Z,2.75
2019-02-28T04:56:20.409Z,2.81
2019-02-28T04:58:46.481Z,2.80
2019-02-28T05:01:13.429Z,2.97
2019-02-28T05:03:39.712Z,2.96
2019-02-28T05:06:07.385Z,2.78
2019-02-28T05:08:38.560Z,2.96
2019-02-28T05:11:04.389Z,2.87
2019-02-28T05:13:30.451Z,2.98
2019-02-28T05:15:56.788Z,2.92
2019-02-28T05:18:22.915Z,2.83
2019-02-28T05:20:49.040Z,2.65
2019-02-28T05:23:15.151Z,2.61
2019-02-28T05:25:41.487Z,2.62
2019-02-28T05:28:07.625Z,2.51
2019-02-28T05:30:33.699Z,2.43
2019-02-28T05:32:59.827Z,2.45
2019-02-28T05:35:28.587Z,2.51
2019-02-28T05:37:54.811Z,2.54
2019-02-28T05:40:20.979Z,2.76
2019-02-28T05:42:47.220Z,3.01
2019-02-28T05:45:14.752Z,2.99
2019-02-28T05:47:46.119Z,3.11
2019-02-28T05:50:15.155Z,3.26
2019-02-28T05:52:40.306Z,3.39
2019-02-28T05:55:08.942Z,3.55
2019-02-28T05:57:35.159Z,3.54
2019-02-28T06:00:09.908Z,3.59
2019-02-28T06:02:36.207Z,3.39
2019-02-28T06:05:08.487Z,3.25
2019-02-28T06:07:34.904Z,3.10
2019-02-28T06:10:09.176Z,2.88
2019-02-28T06:12:35.257Z,3.06
2019-02-28T06:15:09.522Z,3.25
2019-02-28T06:17:35.712Z,3.25
2019-02-28T06:20:08.335Z,3.50
2019-02-28T06:22:36.198Z,3.86
2019-02-28T06:25:09.797Z,4.05
2019-02-28T06:27:41.673Z,4.31
2019-02-28T06:30:10.238Z,4.45
2019-02-28T06:32:36.441Z,4.48
2019-02-28T06:35:16.157Z,4.59
2019-02-28T06:37:39.792Z,4.63
2019-02-28T06:40:13.010Z,4.69
2019-02-28T06:42:39.305Z,4.74
2019-02-28T06:45:11.245Z,4.86
2019-02-28T06:47:39.076Z,4.93
2019-02-28T06:50:09.271Z,4.73
2019-02-28T06:52:35.387Z,4.68
2019-02-28T06:55:03.880Z,4.53
2019-02-28T06:57:30.357Z,4.42
2019-02-28T06:59:56.581Z,4.31
2019-02-28T07:02:22.853Z,4.49
2019-02-28T07:04:49.619Z,4.68
2019-02-28T07:07:16.774Z,4.82
2019-02-28T07:09:42.882Z,4.82
2019-02-28T07:12:09.183Z,5.11
2019-02-28T07:14:35.307Z,5.27
2019-02-28T07:17:17.541Z,5.45
2019-02-28T07:19:43.633Z,5.39
2019-02-28T07:22:09.859Z,5.22
2019-02-28T07:24:37.572Z,5.27
2019-02-28T07:27:04.323Z,5.17
2019-02-28T07:29:32.070Z,5.06
2019-02-28T07:32:01.249Z,5.07
2019-02-28T07:34:26.634Z,5.10
2019-02-28T07:36:52.722Z,4.86
2019-02-28T07:39:18.909Z,4.82
2019-02-28T07:41:45.127Z,4.87
2019-02-28T07:44:11.214Z,5.13
2019-02-28T07:46:38.806Z,5.34
2019-02-28T07:49:05.670Z,5.44
2019-02-28T07:51:31.871Z,5.35
2019-02-28T07:53:59.163Z,5.37
2019-02-28T07:56:25.286Z,5.49
2019-02-28T07:58:52.150Z,5.65
2019-02-28T08:01:19.575Z,5.74
2019-02-28T08:03:45.743Z,5.76
2019-02-28T08:06:11.839Z,5.79
2019-02-28T08:08:38.031Z,5.87
2019-02-28T08:11:04.460Z,6.15
2019-02-28T08:13:30.831Z,6.20
2019-02-28T08:16:00.236Z,6.32
2019-02-28T08:18:25.377Z,6.42
2019-02-28T08:20:51.535Z,6.58
2019-02-28T08:23:17.656Z,6.81
2019-02-28T08:25:43.858Z,6.89
2019-02-28T08:28:10.088Z,6.76
2019-02-28T08:30:36.391Z,6.91
2019-02-28T08:33:02.894Z,7.09
2019-02-28T08:35:33.936Z,6.87
2019-02-28T08:37:57.486Z,6.98
2019-02-28T08:40:26.768Z,7.16
2019-02-28T08:42:52.860Z,7.35
2019-02-28T08:45:19.150Z,7.43
2019-02-28T08:47:45.447Z,7.61
2019-02-28T08:50:20.212Z,7.69
2019-02-28T08:52:48.349Z,7.57
2019-02-28T08:55:14.778Z,7.74
2019-02-28T08:57:44.407Z,7.57
2019-02-28T09:00:19.044Z,7.90
2019-02-28T09:02:45.458Z,7.95
2019-02-28T09:05:12.459Z,8.08
2019-02-28T09:07:38.759Z,7.81
2019-02-28T09:10:11.808Z,7.84
2019-02-28T09:12:36.892Z,7.93
2019-02-28T09:15:05.422Z,7.92
2019-02-28T09:17:31.653Z,8.04
2019-02-28T09:19:57.923Z,8.11
2019-02-28T09:22:26.877Z,8.17
2019-02-28T09:24:52.580Z,8.17
2019-02-28T09:27:18.759Z,8.31
2019-02-28T09:29:46.158Z,8.30
2019-02-28T09:32:13.625Z,8.32
2019-02-28T09:34:43.667Z,8.62
2019-02-28T09:37:09.764Z,8.56
2019-02-28T09:39:35.849Z,8.80
2019-02-28T09:42:02.173Z,8.92
2019-02-28T09:44:31.534Z,9.40
2019-02-28T09:46:56.644Z,9.26
2019-02-28T09:51:48.712Z,9.03
2019-02-28T09:54:14.831Z,8.95
2019-02-28T09:56:44.477Z,9.19
2019-02-28T09:59:09.226Z,9.30
2019-02-28T10:01:35.440Z,9.42
2019-02-28T10:04:01.561Z,9.59
2019-02-28T10:06:27.964Z,9.83
2019-02-28T10:08:54.291Z,9.94
2019-02-28T10:11:21.810Z,9.85
2019-02-28T10:13:49.583Z,10.19
2019-02-28T10:16:16.788Z,10.15
2019-02-28T10:18:43.870Z,10.00
2019-02-28T10:21:09.956Z,9.91
2019-02-28T10:23:36.179Z,9.77
2019-02-28T10:26:02.660Z,9.81
2019-02-28T10:28:29.009Z,9.86
2019-02-28T10:30:55.214Z,9.87
2019-02-28T10:33:21.404Z,10.20
2019-02-28T10:35:47.621Z,10.70
2019-02-28T10:38:13.960Z,10.74
2019-02-28T10:40:40.191Z,11.04
2019-02-28T10:43:06.431Z,11.16
2019-02-28T10:45:32.846Z,11.11
2019-02-28T10:48:02.867Z,10.86
2019-02-28T10:50:33.259Z,11.14
2019-02-28T10:53:04.235Z,11.27
2019-02-28T10:55:27.759Z,10.96
2019-02-28T10:57:53.969Z,10.91
2019-02-28T11:00:32.770Z,11.01
2019-02-28T11:03:00.155Z,11.02
2019-02-28T11:05:29.917Z,11.14
2019-02-28T11:07:56.628Z,11.31
2019-02-28T11:10:26.556Z,11.41
2019-02-28T11:12:54.349Z,11.52
2019-02-28T11:15:23.046Z,11.65
2019-02-28T11:17:49.267Z,11.19
2019-02-28T11:20:22.080Z,11.32
2019-02-28T11:22:44.333Z,10.88
2019-02-28T11:25:13.654Z,11.34
2019-02-28T11:27:40.566Z,11.62
2019-02-28T11:30:25.841Z,11.74
2019-02-28T11:32:52.508Z,12.03
2019-02-28T11:35:20.145Z,12.39
2019-02-28T11:37:47.128Z,12.57
2019-02-28T11:40:17.099Z,12.73
2019-02-28T11:42:43.508Z,13.07
2019-02-28T11:45:18.549Z,12.86
2019-02-28T11:47:45.408Z,12.92
2019-02-28T11:50:11.675Z,13.20
2019-02-28T11:52:38.068Z,13.24
2019-02-28T11:55:07.644Z,12.91
2019-02-28T11:57:33.975Z,13.18
2019-02-28T12:00:00.447Z,13.03
2019-02-28T12:02:29.491Z,13.02
2019-02-28T12:04:55.813Z,12.29
2019-02-28T12:07:22.186Z,11.99
2019-02-28T12:09:51.356Z,12.19
2019-02-28T12:12:16.410Z,12.26
2019-02-28T12:14:42.690Z,12.29
2019-02-28T12:17:08.888Z,12.08
2019-02-28T12:19:35.125Z,12.02
2019-02-28T12:22:01.344Z,12.22
2019-02-28T12:24:29.368Z,12.19
2019-02-28T12:26:56.535Z,12.53
2019-02-28T12:29:22.781Z,12.80
2019-02-28T12:31:48.982Z,12.80
2019-02-28T12:34:15.222Z,12.96
2019-02-28T12:36:41.332Z,12.72
2019-02-28T12:39:07.802Z,13.23
2019-02-28T12:41:35.426Z,12.52
2019-02-28T12:44:02.288Z,12.74
2019-02-28T12:46:31.778Z,12.83
2019-02-28T12:48:56.914Z,12.84
2019-02-28T12:51:23.287Z,13.00
2019-02-28T12:53:51.668Z,13.29
2019-02-28T12:56:18.071Z,12.91
2019-02-28T12:58:44.405Z,12.80
2019-02-28T13:01:11.057Z,12.80
2019-02-28T13:03:37.397Z,12.60
2019-02-28T13:06:03.705Z,12.46
2019-02-28T13:08:30.045Z,12.39
2019-02-28T13:11:03.220Z,12.39
2019-02-28T13:13:27.757Z,12.37
2019-02-28T13:15:52.915Z,12.38
2019-02-28T13:18:19.137Z,12.34
2019-02-28T13:20:45.340Z,12.51
2019-02-28T13:23:11.892Z,12.66
2019-02-28T13:25:39.214Z,12.59
2019-02-28T13:28:06.448Z,12.60
2019-02-28T13:30:32.779Z,12.58
2019-02-28T13:32:59.064Z,12.88
2019-02-28T13:35:28.478Z,13.16
2019-02-28T13:37:54.695Z,13.56
2019-02-28T13:40:22.219Z,13.83
2019-02-28T13:42:48.793Z,13.92
2019-02-28T13:45:22.994Z,13.63
2019-02-28T13:47:46.391Z,13.92
2019-02-28T13:50:33.072Z,14.41
2019-02-28T13:53:03.413Z,14.15
2019-02-28T13:55:27.821Z,13.98
2019-02-28T13:57:55.106Z,14.62
2019-02-28T14:00:23.671Z,14.71
2019-02-28T14:02:55.718Z,14.69
2019-02-28T14:05:23.076Z,13.99
2019-02-28T14:07:49.675Z,14.22
2019-02-28T14:10:18.217Z,14.76
2019-02-28T14:12:44.618Z,14.63
2019-02-28T14:15:15.499Z,14.54
2019-02-28T14:17:42.271Z,14.34
2019-02-28T14:20:09.990Z,13.86
2019-02-28T14:22:37.420Z,14.20
2019-02-28T14:25:06.427Z,14.28
2019-02-28T14:27:33.378Z,14.33
2019-02-28T14:29:59.885Z,14.88
2019-02-28T14:32:26.231Z,14.53
2019-02-28T14:34:52.563Z,14.53
2019-02-28T14:37:19.614Z,14.07
2019-02-28T14:39:46.625Z,14.03
2019-02-28T14:42:12.783Z,14.02
2019-02-28T14:44:39.140Z,13.93
2019-02-28T14:47:05.432Z,14.28
2019-02-28T14:49:31.653Z,14.22
2019-02-28T14:52:00.425Z,14.67
2019-02-28T14:54:25.956Z,14.98
2019-02-28T14:56:52.123Z,15.07
2019-02-28T14:59:18.382Z,14.92
2019-02-28T15:01:44.613Z,14.73
2019-02-28T15:04:18.739Z,14.30
2019-02-28T15:06:47.232Z,14.40
2019-02-28T15:09:14.706Z,14.25
2019-02-28T15:11:43.609Z,14.08
2019-02-28T15:14:09.776Z,14.13
2019-02-28T15:16:36.047Z,13.96
2019-02-28T15:19:18.032Z,13.72
2019-02-28T15:21:44.376Z,13.69
2019-02-28T15:24:10.705Z,13.42
2019-02-28T15:26:36.937Z,13.40
2019-02-28T15:29:05.602Z,13.26
2019-02-28T15:31:34.366Z,13.40
2019-02-28T15:34:07.542Z,13.16
2019-02-28T15:36:33.766Z,13.15
2019-02-28T15:38:59.956Z,13.15
2019-02-28T15:41:26.188Z,13.31
2019-02-28T15:43:53.736Z,13.06
2019-02-28T15:46:21.820Z,13.24
2019-02-28T15:48:49.739Z,13.14
2019-02-28T15:51:25.782Z,12.97
2019-02-28T15:53:53.162Z,13.01
2019-02-28T15:56:21.721Z,12.95
2019-02-28T15:58:47.993Z,12.91
2019-02-28T16:01:14.333Z,12.88
2019-02-28T16:03:40.617Z,12.86
2019-02-28T16:06:06.848Z,12.73
2019-02-28T16:08:33.162Z,12.70
2019-02-28T16:10:59.409Z,12.81
2019-02-28T16:13:25.972Z,12.76
2019-02-28T16:15:52.864Z,12.65
2019-02-28T16:18:19.000Z,12.64
2019-02-28T16:20:45.200Z,12.60
2019-02-28T16:23:11.433Z,12.42
2019-02-28T16:25:38.594Z,12.46
2019-02-28T16:28:07.810Z,12.42
2019-02-28T16:30:34.435Z,12.44
2019-02-28T16:33:01.326Z,12.41
2019-02-28T16:35:29.020Z,12.29
2019-02-28T16:37:55.478Z,12.37
2019-02-28T16:40:26.926Z,12.42
2019-02-28T16:42:52.965Z,12.34
2019-02-28T16:45:26.860Z,12.14
2019-02-28T16:47:55.698Z,12.20
2019-02-28T16:50:21.217Z,12.13
2019-02-28T16:52:47.387Z,11.94
2019-02-28T16:55:13.746Z,11.78
2019-02-28T16:57:39.961Z,11.68
2019-02-28T17:00:09.989Z,11.43
2019-02-28T17:02:36.421Z,11.28
2019-02-28T17:05:05.223Z,11.07
2019-02-28T17:07:31.659Z,11.05
2019-02-28T17:09:57.973Z,11.05
2019-02-28T17:12:28.945Z,10.95
2019-02-28T17:14:55.203Z,10.85
2019-02-28T17:17:25.934Z,10.83
2019-02-28T17:19:52.207Z,10.84
2019-02-28T17:22:18.412Z,10.87
2019-02-28T17:24:46.154Z,10.87
2019-02-28T17:27:24.786Z,10.82
2019-02-28T17:29:52.868Z,10.68
2019-02-28T17:32:19.688Z,10.68
2019-02-28T17:34:47.243Z,10.64
2019-02-28T17:37:13.760Z,10.64
2019-02-28T17:39:40.223Z,10.72
2019-02-28T17:42:08.760Z,10.67
2019-02-28T17:44:41.551Z,10.64
2019-02-28T17:47:29.174Z,10.63
2019-02-28T17:50:08.445Z,10.65
2019-02-28T17:52:47.014Z,10.60
2019-02-28T17:55:36.865Z,10.48
2019-02-28T17:58:06.911Z,10.46
2019-02-28T18:00:54.536Z,10.53
2019-02-28T18:03:36.915Z,10.53
2019-02-28T18:06:12.845Z,10.55
2019-02-28T18:08:45.968Z,10.55
2019-02-28T18:11:30.940Z,10.51
2019-02-28T18:14:11.876Z,10.45
2019-02-28T18:17:01.357Z,10.48
2019-02-28T18:19:43.481Z,10.35
2019-02-28T18:22:25.738Z,10.36
2019-02-28T18:25:14.072Z,10.37
2019-02-28T18:27:57.418Z,10.31
2019-02-28T18:31:00.881Z,10.34
2019-02-28T18:33:27.184Z,10.45
2019-02-28T18:35:53.366Z,10.42
2019-02-28T18:38:19.674Z,10.48
2019-02-28T18:40:45.936Z,10.32
2019-02-28T18:43:12.359Z,10.28
2019-02-28T18:45:38.571Z,10.27
2019-02-28T18:48:04.990Z,10.33
2019-02-28T18:50:31.425Z,10.29
2019-02-28T18:52:57.781Z,10.30
2019-02-28T18:55:24.196Z,10.34
2019-02-28T18:57:50.522Z,10.25
2019-02-28T19:00:18.835Z,10.22
2019-02-28T19:02:45.269Z,10.21
2019-02-28T19:05:12.660Z,10.20
2019-02-28T19:07:40.364Z,10.18
2019-02-28T19:10:08.473Z,10.20
2019-02-28T19:12:35.589Z,10.23
2019-02-28T19:15:02.430Z,10.19
2019-02-28T19:17:30.125Z,10.17
2019-02-28T19:19:57.551Z,10.11
2019-02-28T19:22:23.887Z,10.14
2019-02-28T19:24:49.951Z,10.25
2019-02-28T19:27:16.263Z,10.21
2019-02-28T19:29:42.611Z,10.31
2019-02-28T19:32:08.897Z,10.33
2019-02-28T19:34:35.423Z,10.33
2019-02-28T19:37:01.662Z,10.32
2019-02-28T19:39:27.981Z,10.32
2019-02-28T19:41:54.422Z,10.34
2019-02-28T19:44:20.865Z,10.32
2019-02-28T19:46:47.183Z,10.28
2019-02-28T19:49:13.550Z,10.31
2019-02-28T19:51:40.448Z,10.29
2019-02-28T19:54:06.683Z,10.39
2019-02-28T19:56:32.915Z,10.32
2019-02-28T19:58:59.371Z,10.19
2019-02-28T20:01:25.674Z,10.12
2019-02-28T20:03:51.909Z,10.06
2019-02-28T20:06:18.251Z,10.22
2019-02-28T20:08:44.581Z,10.12
2019-02-28T20:11:14.104Z,10.15
2019-02-28T20:13:40.623Z,10.06
2019-02-28T20:16:12.588Z,10.05
2019-02-28T20:18:47.552Z,9.97
2019-02-28T20:21:14.472Z,9.95
2019-02-28T20:23:42.699Z,10.03
2019-02-28T20:26:08.953Z,10.07
2019-02-28T20:28:35.283Z,10.03
2019-02-28T20:33:41.042Z,10.11
2019-02-28T20:36:10.709Z,10.06
2019-02-28T20:38:37.079Z,10.13
2019-02-28T20:41:10.509Z,10.02
2019-02-28T20:43:41.091Z,10.06
2019-02-28T20:46:10.628Z,10.14
2019-02-28T20:48:36.925Z,10.17
2019-02-28T20:51:09.963Z,10.09
2019-02-28T20:53:36.417Z,10.13
2019-02-28T20:56:09.045Z,10.09
2019-02-28T20:58:35.306Z,10.03
2019-02-28T21:01:06.626Z,10.09
2019-02-28T21:03:34.507Z,10.06
2019-02-28T21:08:40.218Z,10.13
2019-02-28T21:11:12.542Z,10.08
2019-02-28T21:13:38.991Z,10.06
2019-02-28T21:16:09.405Z,10.01
2019-02-28T21:18:35.610Z,10.05
2019-02-28T21:21:05.894Z,10.07
2019-02-28T21:23:32.266Z,10.19
2019-02-28T21:25:59.380Z,10.19
2019-02-28T21:28:27.552Z,10.27
2019-02-28T21:30:53.761Z,10.27
2019-02-28T21:33:20.011Z,10.09
2019-02-28T21:35:46.438Z,10.06
2019-02-28T21:38:13.404Z,10.20
2019-02-28T21:40:40.947Z,10.11
2019-02-28T21:43:09.893Z,10.11
2019-02-28T21:45:42.398Z,10.06
2019-02-28T21:48:16.579Z,10.04
2019-02-28T21:50:42.973Z,9.98
2019-02-28T21:53:09.247Z,9.98
2019-02-28T21:55:35.611Z,9.91
2019-02-28T21:58:13.105Z,9.92
2019-02-28T22:00:39.577Z,9.89
2019-02-28T22:03:06.266Z,9.81
2019-02-28T22:05:32.665Z,9.71
2019-02-28T22:07:58.952Z,9.66
2019-02-28T22:10:25.386Z,9.65
2019-02-28T22:12:53.237Z,9.69
2019-02-28T22:15:22.211Z,9.68
2019-02-28T22:17:48.350Z,9.63
2019-02-28T22:20:16.560Z,9.67
2019-02-28T22:22:42.915Z,9.71
2019-02-28T22:25:15.754Z,9.72
2019-02-28T22:27:42.102Z,9.69
2019-02-28T22:30:34.792Z,9.70
2019-02-28T22:33:32.503Z,9.70
2019-02-28T22:36:00.499Z,9.72
2019-02-28T22:38:33.240Z,9.76
2019-02-28T22:40:59.473Z,9.65
2019-02-28T22:43:25.809Z,9.58
2019-02-28T22:45:52.057Z,9.59
2019-02-28T22:48:18.267Z,9.59
2019-02-28T22:50:44.618Z,9.55
2019-02-28T22:53:10.976Z,9.53
2019-02-28T22:55:37.082Z,9.51
2019-02-28T22:58:08.098Z,9.50
2019-02-28T23:01:06.853Z,9.46
2019-02-28T23:03:35.653Z,9.42
2019-02-28T23:06:02.207Z,9.29
2019-02-28T23:08:28.516Z,9.27
2019-02-28T23:10:54.807Z,9.21
2019-02-28T23:13:21.087Z,9.25
2019-02-28T23:15:47.322Z,9.13
2019-02-28T23:18:14.030Z,9.03
2019-02-28T23:20:40.211Z,9.12
2019-02-28T23:23:06.523Z,9.05
2019-02-28T23:25:33.071Z,9.04
2019-02-28T23:28:23.453Z,9.05
2019-02-28T23:30:56.341Z,9.02
2019-02-28T23:33:22.444Z,8.99
2019-02-28T23:35:48.764Z,9.03
2019-02-28T23:38:14.957Z,8.96
2019-02-28T23:40:41.148Z,8.90
2019-02-28T23:43:07.364Z,8.89
2019-02-28T23:45:33.693Z,8.88
2019-02-28T23:47:59.883Z,8.88
2019-02-28T23:50:26.213Z,8.77
2019-02-28T23:52:52.419Z,8.76
2019-02-28T23:55:18.523Z,8.79
2019-02-28T23:57:44.699Z,8.76
